Time;durP1;ratioP1;P1;durP2;ratioP2;P2;SDS_P1;SDS_P2;PMS_P1;PMS_P2;Temp;Humidity;BMP_temperature;BMP_pressure;BME280_temperature;BME280_humidity;BME280_pressure;Samples;Min_cycle;Max_cycle;Signal;HPM_P1;HPM_P2
2021/12/19 00:09:27;;;;;;;10.38;6.78;;;;;;;-0.32;69.46;95826.13;5048461;28;20056;-62
2021/12/19 00:11:53;;;;;;;10.45;6.75;;;;;;;-0.41;69.95;95825.34;5047644;28;20040;-64
2021/12/19 00:14:20;;;;;;;8.85;5.40;;;;;;;-0.47;70.96;95825.38;5047668;28;20057;-63
2021/12/19 00:16:46;;;;;;;12.48;7.05;;;;;;;-0.45;70.92;95828.72;5047670;28;20057;-63
2021/12/19 00:19:11;;;;;;;11.00;7.15;;;;;;;-0.49;70.79;95834.69;5048639;28;20059;-54
2021/12/19 00:21:39;;;;;;;9.25;6.43;;;;;;;-0.60;71.02;95817.00;5047903;28;20025;-57
2021/12/19 00:24:05;;;;;;;11.27;7.60;;;;;;;-0.62;71.43;95822.94;5048337;28;20352;-56
2021/12/19 00:26:31;;;;;;;8.48;5.68;;;;;;;-0.82;71.82;95791.00;5029716;28;20427;-54
2021/12/19 00:28:56;;;;;;;8.90;6.65;;;;;;;-0.90;72.22;95789.34;5048194;28;20395;-58
2021/12/19 00:31:22;;;;;;;9.02;6.38;;;;;;;-0.77;72.46;95816.25;5047970;28;20506;-59
2021/12/19 00:33:47;;;;;;;11.38;7.78;;;;;;;-1.07;73.40;95772.53;5029659;28;20064;-54
2021/12/19 00:36:14;;;;;;;12.40;7.85;;;;;;;-0.85;73.49;95818.84;5047940;28;20032;-57
2021/12/19 00:38:40;;;;;;;10.48;6.75;;;;;;;-0.93;74.50;95818.06;5047245;28;20057;-57
2021/12/19 00:41:06;;;;;;;11.40;6.65;;;;;;;-0.94;73.84;95818.91;5030057;28;20483;-58
2021/12/19 00:43:36;;;;;;;14.30;8.93;;;;;;;-1.06;74.67;95802.09;5047883;28;20044;-54
2021/12/19 00:46:09;;;;;;;10.70;8.10;;;;;;;-1.12;74.55;95808.00;5048067;28;20091;-55
2021/12/19 00:48:37;;;;;;;9.52;6.47;;;;;;;-1.05;75.16;95825.69;5047946;28;20454;-58
2021/12/19 00:51:04;;;;;;;10.85;7.55;;;;;;;-1.13;75.23;95813.09;5047474;28;20025;-58
2021/12/19 00:53:29;;;;;;;14.85;9.13;;;;;;;-1.15;75.38;95813.09;5048075;28;20053;-62
2021/12/19 00:55:55;;;;;;;10.30;7.80;;;;;;;-1.22;76.06;95800.47;5030041;28;20118;-50
2021/12/19 00:58:20;;;;;;;9.68;6.70;;;;;;;-1.15;75.62;95814.78;5048176;28;20079;-59
2021/12/19 01:00:46;;;;;;;11.35;8.30;;;;;;;-1.20;75.72;95803.84;5047651;28;20025;-56
2021/12/19 01:03:12;;;;;;;12.98;8.55;;;;;;;-1.35;76.14;95770.16;5047744;28;20377;-55
2021/12/19 01:05:41;;;;;;;15.60;9.40;;;;;;;-1.40;76.25;95763.44;5047678;28;20056;-57
2021/12/19 01:08:07;;;;;;;13.82;8.02;;;;;;;-1.20;76.73;95793.72;5047774;28;20115;-60
2021/12/19 01:10:34;;;;;;;12.15;7.97;;;;;;;-1.25;76.02;95786.13;5047815;28;20116;-60
2021/12/19 01:13:02;;;;;;;12.30;8.65;;;;;;;-1.26;76.86;95789.53;5048037;28;20025;-54
2021/12/19 01:15:29;;;;;;;14.70;8.75;;;;;;;-1.22;76.74;95788.66;5047184;28;20045;-57
2021/12/19 01:17:55;;;;;;;12.60;8.40;;;;;;;-1.16;75.99;95792.88;5047525;28;20036;-57
2021/12/19 01:20:23;;;;;;;10.23;6.80;;;;;;;-1.38;76.14;95767.63;5047647;28;20476;-58
2021/12/19 01:22:49;;;;;;;12.13;7.57;;;;;;;-1.23;76.25;95786.13;5047723;28;20025;-56
2021/12/19 01:25:16;;;;;;;11.25;7.47;;;;;;;-1.42;75.90;95744.91;5051413;28;20021;-64
2021/12/19 01:27:42;;;;;;;11.02;9.13;;;;;;;-1.16;76.44;95780.22;5051124;28;20116;-63
2021/12/19 01:30:10;;;;;;;8.90;5.97;;;;;;;-1.17;76.14;95779.34;5051285;28;20112;-57
2021/12/19 01:32:36;;;;;;;12.45;8.27;;;;;;;-1.22;76.93;95770.09;5051045;28;20462;-57
2021/12/19 01:35:02;;;;;;;16.02;9.85;;;;;;;-1.22;75.85;95760.00;5050961;28;20052;-53
2021/12/19 01:37:28;;;;;;;10.50;7.97;;;;;;;-1.11;75.99;95773.44;5050479;28;20114;-61
2021/12/19 01:39:54;;;;;;;12.25;7.07;;;;;;;-0.97;75.19;95765.75;5051118;28;20052;-57
2021/12/19 01:42:20;;;;;;;10.70;7.45;;;;;;;-1.15;75.35;95743.91;5051152;28;20488;-54
2021/12/19 01:44:48;;;;;;;8.95;6.97;;;;;;;-1.32;75.37;95728.81;5050560;28;20029;-58
2021/12/19 01:47:15;;;;;;;13.23;9.07;;;;;;;-1.95;75.45;95606.06;5032673;28;20037;-56
2021/12/19 01:49:41;;;;;;;10.93;7.20;;;;;;;-0.99;75.11;95762.38;5050257;28;20036;-58
2021/12/19 01:52:06;;;;;;;11.90;6.70;;;;;;;-0.95;74.53;95753.94;5032806;28;20048;-56
2021/12/19 01:54:32;;;;;;;10.20;6.75;;;;;;;-0.89;74.47;95746.28;5050890;28;20488;-59
2021/12/19 01:56:58;;;;;;;8.50;5.72;;;;;;;-0.88;74.66;95742.91;5050571;28;20465;-57
2021/12/19 01:59:23;;;;;;;13.35;7.78;;;;;;;-0.85;74.33;95716.69;5050392;28;20036;-56
2021/12/19 02:01:53;;;;;;;10.93;7.40;;;;;;;-0.80;74.07;95725.13;5049848;28;20029;-58
2021/12/19 02:04:19;;;;;;;8.18;5.85;;;;;;;-0.79;73.95;95716.66;5051051;28;20042;-59
2021/12/19 02:06:45;;;;;;;9.70;7.07;;;;;;;-0.62;73.67;95734.28;5050378;28;20037;-59
2021/12/19 02:09:11;;;;;;;18.88;7.95;;;;;;;-0.74;73.91;95722.53;5050160;28;20035;-57
2021/12/19 02:11:39;;;;;;;11.88;7.72;;;;;;;-0.66;73.29;95722.47;5050291;28;20028;-59
2021/12/19 02:14:06;;;;;;;11.38;8.15;;;;;;;-0.54;72.91;95734.22;5049914;28;20458;-59
2021/12/19 02:16:32;;;;;;;11.43;8.65;;;;;;;-0.44;72.72;95721.47;5050097;28;20495;-55
2021/12/19 02:18:58;;;;;;;12.60;7.80;;;;;;;-0.65;72.48;95687.00;5050297;28;20116;-58
2021/12/19 02:21:24;;;;;;;12.00;8.20;;;;;;;-0.55;72.89;95687.78;5049949;28;20442;-56
2021/12/19 02:23:50;;;;;;;9.98;7.43;;;;;;;-0.34;72.27;95719.69;5050010;28;20032;-56
2021/12/19 02:26:15;;;;;;;9.95;6.93;;;;;;;-0.44;72.45;95701.19;5049683;28;20033;-61
2021/12/19 02:28:41;;;;;;;10.75;7.70;;;;;;;-0.35;72.71;95704.50;5049930;28;20442;-57
2021/12/19 02:31:07;;;;;;;11.65;8.02;;;;;;;-0.68;72.78;95653.28;5049967;28;20025;-57
2021/12/19 02:33:37;;;;;;;11.80;8.40;;;;;;;-0.32;72.57;95705.28;5050270;28;20021;-58
2021/12/19 02:36:19;;;;;;;12.35;8.27;;;;;;;-0.23;72.64;95717.03;5049524;28;20118;-59
2021/12/19 02:49:30;;;;;;;12.23;7.55;;;;;;;-0.14;72.63;95713.59;5049430;28;20094;-57
2021/12/19 02:51:56;;;;;;;11.13;7.95;;;;;;;-0.23;72.13;95690.00;5049424;28;20100;-56
2021/12/19 02:54:24;;;;;;;10.43;7.13;;;;;;;-0.12;72.22;95710.16;5049551;28;20100;-60
2021/12/19 02:56:50;;;;;;;9.27;6.28;;;;;;;-0.29;72.61;95707.81;5049447;28;20027;-57
2021/12/19 02:59:16;;;;;;;11.90;8.00;;;;;;;-0.24;72.44;95701.00;5049424;28;20149;-56
2021/12/19 03:01:43;;;;;;;9.85;7.15;;;;;;;-0.26;73.13;95704.41;5030827;28;20163;-56
2021/12/19 03:04:09;;;;;;;10.60;7.45;;;;;;;-0.32;73.29;95701.94;5049572;28;20040;-60
2021/12/19 03:06:35;;;;;;;7.05;5.85;;;;;;;-0.39;73.32;95694.38;5049531;28;20170;-65
2021/12/19 03:09:06;;;;;;;12.80;8.63;;;;;;;-0.45;73.45;95689.34;5048927;28;20107;-52
2021/12/19 03:19:59;;;;;;;12.75;7.32;;;;;;;-0.41;73.69;95685.97;4987081;28;20077;-62
2021/12/19 03:22:24;;;;;;;13.07;9.07;;;;;;;-0.41;74.05;95693.56;4987103;28;20135;-64
2021/12/19 03:24:50;;;;;;;8.05;6.22;;;;;;;-0.48;73.62;95698.69;4987050;28;20038;-61
2021/12/19 03:27:15;;;;;;;11.02;6.68;;;;;;;-0.59;74.28;95707.22;4986714;28;20496;-60
2021/12/19 03:29:41;;;;;;;12.52;8.68;;;;;;;-0.57;74.48;95700.44;4987077;28;20046;-60
2021/12/19 03:32:06;;;;;;;14.25;9.50;;;;;;;-0.61;73.94;95692.88;4986852;28;20029;-65
2021/12/19 03:34:34;;;;;;;10.23;7.40;;;;;;;-0.76;74.24;95693.84;4986999;28;20126;-61
2021/12/19 03:37:00;;;;;;;12.75;8.52;;;;;;;-0.99;75.13;95661.13;4986560;28;20130;-61
2021/12/19 03:39:33;;;;;;;11.77;8.63;;;;;;;-0.88;74.65;95694.78;4986416;28;20031;-61
2021/12/19 03:41:58;;;;;;;12.48;9.23;;;;;;;-1.17;75.37;95657.03;4986750;28;20120;-60
2021/12/19 03:44:24;;;;;;;12.40;9.13;;;;;;;-1.03;75.01;95698.28;4986918;28;20027;-63
2021/12/19 03:46:50;;;;;;;11.45;8.45;;;;;;;-1.10;75.06;95678.91;4986187;28;20624;-61
2021/12/19 03:49:19;;;;;;;12.60;8.10;;;;;;;-0.96;75.16;95691.47;4986568;28;20043;-62
2021/12/19 03:51:45;;;;;;;11.85;6.57;;;;;;;-1.14;75.72;95693.28;4986417;28;20026;-62
2021/12/19 03:54:10;;;;;;;22.20;8.93;;;;;;;-1.17;75.73;95685.69;4986750;28;20026;-59
2021/12/19 03:56:36;;;;;;;11.77;9.25;;;;;;;-1.21;76.16;95683.22;5044646;28;20037;-60
2021/12/19 03:59:01;;;;;;;14.05;8.88;;;;;;;-1.46;75.57;95642.88;5048224;28;20029;-65
2021/12/19 04:01:27;;;;;;;14.52;9.85;;;;;;;-1.24;75.63;95681.53;5048192;28;20029;-60
2021/12/19 04:03:52;;;;;;;13.15;8.35;;;;;;;-1.31;76.42;95675.69;5048560;28;20036;-60
2021/12/19 04:06:18;;;;;;;14.25;10.00;;;;;;;-1.38;76.73;95668.97;5048646;28;20033;-61
2021/12/19 04:08:43;;;;;;;12.55;9.57;;;;;;;-1.44;76.24;95658.91;5048332;28;20040;-53
2021/12/19 04:11:09;;;;;;;12.30;8.95;;;;;;;-1.39;75.99;95664.78;5048174;28;20688;-62
2021/12/19 04:13:34;;;;;;;15.98;9.18;;;;;;;-1.39;75.86;95666.47;5047854;28;20032;-63
2021/12/19 04:16:00;;;;;;;11.57;8.07;;;;;;;-1.50;76.02;95651.34;5047633;28;20056;-63
2021/12/19 04:18:25;;;;;;;13.80;10.07;;;;;;;-1.52;76.35;95664.00;5048241;28;20104;-65
2021/12/19 04:20:51;;;;;;;17.73;8.95;;;;;;;-1.55;76.04;95669.06;5048198;28;20040;-61
2021/12/19 04:23:17;;;;;;;11.10;7.22;;;;;;;-1.63;76.56;95637.09;5048109;28;20407;-64
2021/12/19 04:25:42;;;;;;;13.60;9.73;;;;;;;-1.42;75.50;95657.19;5030025;28;20029;-57
2021/12/19 04:28:08;;;;;;;16.48;9.88;;;;;;;-1.38;75.34;95650.41;5048270;28;20029;-57
2021/12/19 04:30:33;;;;;;;12.52;8.57;;;;;;;-1.24;75.32;95652.88;5048378;28;20040;-55
2021/12/19 04:33:04;;;;;;;12.73;7.07;;;;;;;-1.10;73.66;95651.06;5047903;28;20421;-57
2021/12/19 04:35:35;;;;;;;12.13;8.98;;;;;;;-1.05;73.34;95640.91;5047974;28;20040;-55
2021/12/19 04:55:23;;;;;;;12.90;8.32;;;;;;;-0.60;70.91;95627.00;5005440;28;20042;-59
2021/12/19 04:57:24;;;;;;;14.07;8.10;;;;;;;-0.53;70.90;95616.81;4996654;28;20054;-63
2021/12/19 04:59:57;;;;;;;14.10;8.63;;;;;;;-0.56;70.51;95617.69;5008875;28;20037;-62
2021/12/19 05:05:24;;;;;;;13.95;8.77;;;;;;;-0.53;70.44;95617.66;5009640;28;20037;-53
2021/12/19 05:16:02;;;;;;;15.23;9.48;;;;;;;-0.58;69.52;95589.00;5009254;28;20148;-54
2021/12/19 05:18:31;;;;;;;11.93;8.02;;;;;;;-0.33;70.06;95631.81;5009188;28;20718;-63
2021/12/19 05:21:05;;;;;;;14.10;8.93;;;;;;;-0.38;69.91;95631.84;5031559;28;20064;-63
2021/12/19 05:25:56;;;;;;;11.80;8.70;;;;;;;-0.49;69.34;95614.25;5071167;28;20032;-62
2021/12/19 05:28:22;;;;;;;12.57;8.65;;;;;;;-0.41;70.35;95621.75;5071140;28;20546;-63
2021/12/19 05:30:47;;;;;;;15.35;10.00;;;;;;;-0.38;70.33;95634.38;5071181;28;20027;-59
2021/12/19 05:33:13;;;;;;;16.40;10.85;;;;;;;-0.51;69.88;95617.63;5071303;28;20075;-61
2021/12/19 05:44:12;;;;;;;16.33;10.27;;;;;;;-0.44;70.39;95614.22;5071280;28;20039;-60
2021/12/19 05:46:38;;;;;;;16.40;9.43;;;;;;;-0.37;70.33;95619.16;5070892;28;20423;-61
2021/12/19 05:49:04;;;;;;;13.82;9.27;;;;;;;-0.39;70.14;95620.06;5070744;28;20082;-63
2021/12/19 05:51:30;;;;;;;14.43;9.68;;;;;;;-0.52;70.55;95614.28;5070118;28;20048;-61
2021/12/19 05:53:56;;;;;;;14.52;8.93;;;;;;;-0.59;70.68;95616.03;5070623;28;20027;-62
2021/12/19 05:56:21;;;;;;;16.10;10.50;;;;;;;-0.63;70.93;95623.66;5070743;28;20032;-63
2021/12/19 05:58:47;;;;;;;13.27;8.75;;;;;;;-0.72;71.70;95616.16;5071013;28;20388;-62
2021/12/19 06:01:12;;;;;;;15.30;10.40;;;;;;;-0.84;71.41;95612.03;5070312;28;20020;-60
2021/12/19 06:03:38;;;;;;;16.35;9.93;;;;;;;-0.98;72.42;95607.94;5070468;28;20160;-56
2021/12/19 06:06:03;;;;;;;15.73;10.10;;;;;;;-0.95;72.86;95618.03;5070353;28;20032;-57
2021/12/19 06:08:29;;;;;;;14.98;9.40;;;;;;;-0.94;72.75;95603.69;5070588;28;20021;-58
2021/12/19 06:10:55;;;;;;;14.52;8.88;;;;;;;-0.87;72.50;95609.53;5069919;28;20487;-60
2021/12/19 06:13:20;;;;;;;14.52;9.48;;;;;;;-0.96;72.72;95591.03;5067650;28;20031;-57
2021/12/19 06:15:49;;;;;;;16.33;9.45;;;;;;;-0.99;71.38;95564.91;5046693;28;20068;-59
2021/12/19 06:18:15;;;;;;;15.15;9.13;;;;;;;-0.76;71.71;95592.56;5049730;28;20035;-64
2021/12/19 06:20:40;;;;;;;12.85;8.45;;;;;;;-0.71;71.57;95585.75;5046788;28;20419;-59
2021/12/19 06:23:08;;;;;;;17.15;10.23;;;;;;;-0.96;71.74;95545.47;5050047;28;20108;-57
2021/12/19 06:25:33;;;;;;;14.65;9.52;;;;;;;-0.71;71.89;95579.84;5049822;28;20424;-61
2021/12/19 06:27:59;;;;;;;11.05;7.75;;;;;;;-0.74;71.61;95585.78;5050184;28;20036;-62
2021/12/19 06:30:25;;;;;;;13.75;8.40;;;;;;;-0.77;71.89;95573.13;5049785;28;20036;-60
2021/12/19 06:32:51;;;;;;;12.63;9.68;;;;;;;-0.79;71.65;95573.19;5049942;28;20057;-61
2021/12/19 06:35:21;;;;;;;12.75;8.52;;;;;;;-0.91;71.71;95572.44;5049975;28;20072;-61
2021/12/19 06:37:47;;;;;;;12.50;7.93;;;;;;;-0.86;71.22;95560.59;5049579;28;20415;-56
2021/12/19 06:40:17;;;;;;;15.43;9.02;;;;;;;-0.74;71.75;95575.63;5049663;28;20185;-57
2021/12/19 06:42:43;;;;;;;15.40;8.82;;;;;;;-0.79;70.99;95559.66;5049777;28;20037;-62
2021/12/19 06:45:09;;;;;;;13.68;8.20;;;;;;;-0.70;71.30;95576.47;5049493;28;20035;-63
2021/12/19 06:47:35;;;;;;;15.52;9.02;;;;;;;-0.60;70.21;95572.97;5049391;28;20420;-61
2021/12/19 06:50:01;;;;;;;16.70;9.65;;;;;;;-0.54;70.51;95562.78;5049264;28;20044;-64
2021/12/19 06:52:27;;;;;;;15.48;9.10;;;;;;;-0.51;70.27;95567.78;5049521;28;20033;-64
2021/12/19 06:54:53;;;;;;;20.70;10.48;;;;;;;-0.46;70.17;95555.09;5049614;28;20043;-62
2021/12/19 06:57:18;;;;;;;16.52;10.50;;;;;;;-0.45;69.72;95561.84;5049491;28;20029;-58
2021/12/19 06:59:44;;;;;;;18.02;12.50;;;;;;;-0.35;69.97;95568.47;5049623;28;20028;-64
2021/12/19 07:02:14;;;;;;;15.88;9.82;;;;;;;-0.31;69.67;95565.06;5048863;28;20466;-62
2021/12/19 07:04:41;;;;;;;18.02;11.00;;;;;;;-0.24;69.22;95559.03;5049290;28;20107;-59
2021/12/19 07:07:06;;;;;;;18.77;12.68;;;;;;;-0.12;69.01;95567.38;5031376;28;20049;-55
2021/12/19 07:09:31;;;;;;;21.30;12.85;;;;;;;-0.30;68.90;95528.69;5049195;28;20486;-59
2021/12/19 07:11:57;;;;;;;16.55;11.77;;;;;;;-0.14;68.52;95541.19;5049320;28;20035;-61
2021/12/19 07:14:22;;;;;;;16.50;10.35;;;;;;;-0.18;68.37;95530.28;5048485;28;20025;-62
2021/12/19 07:16:48;;;;;;;17.02;11.75;;;;;;;0.05;68.55;95546.84;5048709;28;20143;-62
2021/12/19 07:19:13;;;;;;;17.25;10.20;;;;;;;0.33;68.12;95557.47;5048768;28;20543;-59
2021/12/19 07:21:39;;;;;;;16.52;10.57;;;;;;;0.46;67.75;95546.28;5048150;28;20044;-62
2021/12/19 07:24:04;;;;;;;17.85;11.00;;;;;;;0.50;67.26;95530.13;5030882;28;20488;-63
2021/12/19 07:26:30;;;;;;;17.60;8.27;;;;;;;0.51;66.57;95501.38;5048548;28;20037;-60
2021/12/19 07:28:56;;;;;;;12.73;8.50;;;;;;;0.86;66.34;95550.72;5048765;28;20411;-62
2021/12/19 07:31:22;;;;;;;15.77;8.52;;;;;;;0.85;65.66;95551.59;5049117;28;20025;-55
2021/12/19 07:33:47;;;;;;;11.20;7.30;;;;;;;1.04;65.00;95543.66;5030790;28;20040;-61
2021/12/19 07:36:17;;;;;;;13.15;9.18;;;;;;;1.00;64.76;95516.63;5048540;28;20033;-64
2021/12/19 07:39:01;;;;;;;16.02;9.40;;;;;;;1.19;63.91;95515.44;5048244;28;20029;-62
2021/12/19 07:41:26;;;;;;;13.25;8.50;;;;;;;1.54;63.05;95536.81;5048639;28;20021;-61
2021/12/19 07:43:52;;;;;;;16.45;9.73;;;;;;;1.37;66.84;95513.41;5048877;28;20032;-58
2021/12/19 07:46:17;;;;;;;14.77;9.38;;;;;;;1.94;64.17;95512.28;5048222;28;20029;-58
2021/12/19 07:48:43;;;;;;;14.70;8.88;;;;;;;2.54;63.91;95524.50;5047984;28;20094;-59
2021/12/19 07:51:08;;;;;;;15.18;9.80;;;;;;;2.95;61.29;95526.91;5047604;28;20025;-59
2021/12/19 07:53:34;;;;;;;18.67;8.98;;;;;;;2.96;57.68;95530.31;5041378;28;20528;-60
2021/12/19 07:56:00;;;;;;;18.25;11.23;;;;;;;2.68;57.92;95534.34;5032254;28;20029;-59
2021/12/19 07:58:26;;;;;;;17.48;10.65;;;;;;;2.18;59.35;95539.75;5028046;28;20041;-59
2021/12/19 08:00:52;;;;;;;16.55;9.82;;;;;;;1.92;60.02;95501.28;5034808;28;20033;-60
2021/12/19 08:03:17;;;;;;;19.38;9.05;;;;;;;1.54;59.68;95435.16;5027675;28;20472;-58
2021/12/19 08:05:43;;;;;;;13.18;8.20;;;;;;;1.61;60.02;95490.06;5034665;28;20120;-60
2021/12/19 08:08:10;;;;;;;19.63;11.75;;;;;;;1.98;60.36;95512.19;5026077;28;20064;-59
2021/12/19 08:13:04;;;;;;;13.48;9.27;;;;;;;1.92;60.24;95498.75;5025468;28;20053;-57
2021/12/19 08:15:31;;;;;;;16.55;9.50;;;;;;;1.70;60.40;95473.78;5031065;28;20037;-59
2021/12/19 08:17:56;;;;;;;19.45;11.05;;;;;;;1.86;60.25;95479.38;5045173;28;20609;-59
2021/12/19 08:20:22;;;;;;;12.48;9.07;;;;;;;1.81;60.40;95486.28;5038575;28;20033;-60
2021/12/19 08:22:49;;;;;;;21.63;11.43;;;;;;;1.79;60.38;95486.31;5027566;28;20033;-59
2021/12/19 08:25:15;;;;;;;15.60;9.65;;;;;;;1.54;61.18;95467.34;5030493;28;20037;-60
2021/12/19 08:27:40;;;;;;;25.33;12.18;;;;;;;1.65;61.34;95471.31;5030652;28;20419;-59
2021/12/19 08:30:10;;;;;;;15.73;9.30;;;;;;;1.49;61.35;95461.50;5027715;28;20059;-60
2021/12/19 08:32:36;;;;;;;20.55;12.80;;;;;;;1.64;60.95;95456.09;5020519;28;20056;-59
2021/12/19 08:35:03;;;;;;;20.90;11.13;;;;;;;1.73;61.04;95475.44;5045667;28;20518;-57
2021/12/19 08:37:29;;;;;;;13.88;9.18;;;;;;;1.82;60.86;95470.13;5019745;28;20037;-60
2021/12/19 08:39:55;;;;;;;15.98;11.30;;;;;;;1.81;60.69;95473.56;5030220;28;20146;-58
2021/12/19 08:42:21;;;;;;;18.25;10.30;;;;;;;1.81;60.87;95473.56;5039116;28;20059;-59
2021/12/19 08:44:48;;;;;;;19.27;11.13;;;;;;;1.69;60.98;95456.88;5028814;28;20026;-60
2021/12/19 08:47:13;;;;;;;20.00;12.02;;;;;;;1.91;60.81;95474.19;5040326;28;20399;-60
2021/12/19 08:49:40;;;;;;;13.35;10.18;;;;;;;1.73;60.98;95472.88;5028270;28;20136;-60
2021/12/19 08:52:06;;;;;;;18.13;11.20;;;;;;;1.75;60.83;95471.13;5038622;28;20076;-60
2021/12/19 08:54:32;;;;;;;19.67;12.48;;;;;;;1.74;60.70;95479.63;5029382;28;20029;-58
2021/12/19 08:56:57;;;;;;;18.15;11.43;;;;;;;1.78;60.82;95474.44;5035461;28;20068;-61
2021/12/19 08:59:24;;;;;;;19.95;12.52;;;;;;;1.53;60.96;95445.34;5033257;28;20041;-60
2021/12/19 09:01:50;;;;;;;17.20;10.10;;;;;;;1.65;61.26;95448.44;5032045;28;20059;-59
2021/12/19 09:04:16;;;;;;;18.33;12.07;;;;;;;1.80;61.22;95476.97;5048550;28;20484;-60
2021/12/19 09:06:42;;;;;;;14.57;9.55;;;;;;;1.79;61.08;95470.22;5044359;28;20037;-60
2021/12/19 09:09:08;;;;;;;19.60;12.50;;;;;;;1.80;61.27;95472.72;5037145;28;20091;-55
2021/12/19 09:11:34;;;;;;;17.80;11.05;;;;;;;1.38;61.40;95406.66;5028480;28;20132;-58
2021/12/19 09:13:59;;;;;;;14.68;9.85;;;;;;;1.76;61.10;95466.03;5028436;28;20029;-55
2021/12/19 09:16:26;;;;;;;13.30;8.25;;;;;;;1.72;61.04;95451.72;5028591;28;20135;-59
2021/12/19 09:18:52;;;;;;;16.33;10.95;;;;;;;1.80;61.17;95457.47;5030949;28;20505;-59
2021/12/19 09:21:18;;;;;;;15.38;8.65;;;;;;;1.67;61.90;95456.03;5031103;28;20558;-59
2021/12/19 09:23:43;;;;;;;11.02;7.53;;;;;;;1.59;62.00;95440.09;5030901;28;20037;-59
2021/12/19 09:26:09;;;;;;;14.98;10.25;;;;;;;1.95;66.62;95437.63;5032716;28;20029;-58
2021/12/19 09:28:34;;;;;;;12.77;8.80;;;;;;;2.08;63.03;95395.78;5048939;28;20057;-58
2021/12/19 09:31:00;;;;;;;22.25;12.55;;;;;;;2.51;61.63;95425.28;5050494;28;20033;-53
2021/12/19 09:33:25;;;;;;;15.52;10.43;;;;;;;2.44;60.12;95422.94;5043034;28;20032;-61
2021/12/19 09:35:51;;;;;;;18.15;11.75;;;;;;;1.97;61.25;95398.59;5050103;28;20111;-59
2021/12/19 09:38:18;;;;;;;14.23;9.10;;;;;;;2.10;61.08;95416.09;5049951;28;20029;-57
2021/12/19 09:40:45;;;;;;;21.65;13.35;;;;;;;2.13;61.26;95413.47;5050430;28;20110;-59
2021/12/19 09:43:41;;;;;;;16.55;9.80;;;;;;;1.96;61.88;95413.88;5050164;28;20024;-60
2021/12/19 09:46:11;;;;;;;19.10;10.82;;;;;;;1.89;61.78;95400.47;5050596;28;20044;-60
2021/12/19 09:48:39;;;;;;;18.17;10.75;;;;;;;1.74;62.59;95388.94;5032361;28;20033;-61
2021/12/19 09:51:05;;;;;;;21.10;13.13;;;;;;;1.97;61.95;95400.31;5049836;28;20021;-61
2021/12/19 09:53:30;;;;;;;40.60;11.32;;;;;;;1.76;62.36;95399.91;5050008;28;20017;-59
2021/12/19 09:55:56;;;;;;;17.85;11.52;;;;;;;1.57;62.69;95352.88;5050403;28;20104;-59
2021/12/19 09:58:21;;;;;;;22.80;14.63;;;;;;;1.81;62.85;95387.09;5049540;28;20079;-59
2021/12/19 10:00:47;;;;;;;22.63;13.40;;;;;;;1.95;62.63;95372.34;5050024;28;20075;-59
2021/12/19 10:03:15;;;;;;;19.48;11.63;;;;;;;1.93;62.13;95355.44;5049480;28;20028;-59
2021/12/19 10:05:40;;;;;;;25.50;14.52;;;;;;;2.00;62.00;95362.06;5049702;28;20033;-62
2021/12/19 10:08:06;;;;;;;21.42;14.75;;;;;;;1.93;61.79;95328.31;5050034;28;20085;-60
2021/12/19 10:10:47;;;;;;;22.15;16.00;;;;;;;2.17;61.86;95349.75;5049920;28;20025;-60
2021/12/19 10:13:13;;;;;;;22.45;13.93;;;;;;;2.18;61.76;95353.13;5049923;28;20028;-61
2021/12/19 10:15:42;;;;;;;18.13;12.52;;;;;;;2.11;61.50;95342.28;5048931;28;20040;-59
2021/12/19 10:18:09;;;;;;;22.73;14.15;;;;;;;1.52;62.02;95248.78;5030792;28;20029;-61
2021/12/19 10:21:00;;;;;;;18.55;11.82;;;;;;;1.87;62.46;95297.97;5049408;28;20064;-61
2021/12/19 10:23:29;;;;;;;18.40;11.38;;;;;;;2.28;62.14;95330.84;5046586;28;20140;-61
2021/12/19 10:26:06;;;;;;;17.80;11.82;;;;;;;2.41;61.91;95336.47;5048827;28;20041;-60
2021/12/19 10:28:33;;;;;;;15.88;10.98;;;;;;;2.44;62.00;95328.75;5048452;28;20029;-61
2021/12/19 10:31:01;;;;;;;17.58;10.13;;;;;;;2.37;62.10;95336.53;5049572;28;20429;-61
2021/12/19 10:33:29;;;;;;;21.90;13.18;;;;;;;2.37;62.58;95325.53;5049179;28;20021;-60
2021/12/19 10:36:00;;;;;;;14.32;10.52;;;;;;;2.44;62.71;95323.66;5049889;28;20029;-61
2021/12/19 10:38:36;;;;;;;19.08;10.93;;;;;;;2.37;62.75;95311.06;5031146;28;20709;-60
2021/12/19 10:41:07;;;;;;;19.80;12.20;;;;;;;2.38;62.89;95317.03;5031013;28;20569;-61
2021/12/19 10:43:34;;;;;;;17.27;11.82;;;;;;;2.49;63.39;95306.53;5049147;28;20037;-61
2021/12/19 10:46:03;;;;;;;19.13;12.95;;;;;;;2.52;63.80;95303.91;5048764;28;20044;-61
2021/12/19 10:48:39;;;;;;;20.73;12.38;;;;;;;2.47;63.30;95280.31;5049319;28;20413;-62
2021/12/19 10:51:10;;;;;;;18.67;11.30;;;;;;;2.62;63.71;95307.06;5048934;28;20072;-63
2021/12/19 10:53:44;;;;;;;22.92;12.52;;;;;;;2.54;63.68;95261.44;5049172;28;20466;-61
2021/12/19 10:56:22;;;;;;;21.33;14.07;;;;;;;2.89;63.13;95287.63;5048584;28;20385;-60
2021/12/19 10:59:08;;;;;;;18.92;13.13;;;;;;;2.82;63.14;95292.06;5046704;28;20117;-59
2021/12/19 11:01:44;;;;;;;19.88;12.88;;;;;;;2.75;62.79;95265.09;5045252;28;20029;-64
2021/12/19 11:04:22;;;;;;;18.70;10.77;;;;;;;2.90;62.59;95276.53;5046378;28;20099;-61
2021/12/19 11:06:53;;;;;;;18.75;12.73;;;;;;;2.68;63.55;95279.72;5045722;28;20047;-61
2021/12/19 11:09:30;;;;;;;19.63;11.93;;;;;;;2.41;63.38;95255.00;5028377;28;20029;-61
2021/12/19 11:12:10;;;;;;;18.55;11.23;;;;;;;2.32;63.60;95262.00;5046205;28;20032;-62
2021/12/19 11:14:51;;;;;;;20.92;14.05;;;;;;;1.99;63.14;95200.16;5029046;28;20061;-60
2021/12/19 11:17:20;;;;;;;22.95;14.90;;;;;;;2.38;62.69;95264.41;5025885;28;20063;-60
2021/12/19 11:19:50;;;;;;;23.00;13.65;;;;;;;2.28;62.49;95260.44;5026356;28;20033;-60
2021/12/19 11:22:25;;;;;;;18.60;12.13;;;;;;;1.67;62.29;95156.03;5036329;28;20603;-60
2021/12/19 11:24:58;;;;;;;20.48;14.30;;;;;;;2.28;62.28;95249.41;5033157;28;20034;-64
2021/12/19 11:27:25;;;;;;;19.05;12.75;;;;;;;2.25;62.51;95246.94;5030807;28;20132;-61
2021/12/19 11:29:55;;;;;;;21.38;14.63;;;;;;;2.14;62.60;95235.34;5025972;28;20543;-60
2021/12/19 11:32:26;;;;;;;24.35;14.15;;;;;;;2.32;62.42;95240.84;5034416;28;20025;-61
2021/12/19 11:35:16;;;;;;;23.05;13.80;;;;;;;2.29;61.85;95229.00;5030156;28;20041;-62
2021/12/19 11:37:49;;;;;;;17.73;10.80;;;;;;;2.38;61.77;95240.66;5024881;28;20530;-62
2021/12/19 11:40:17;;;;;;;17.75;11.27;;;;;;;2.45;61.66;95252.34;5025491;28;20037;-63
2021/12/19 11:42:43;;;;;;;19.55;9.50;;;;;;;2.25;61.62;95237.63;5009531;28;20536;-60
2021/12/19 11:45:40;;;;;;;20.02;12.13;;;;;;;2.23;61.90;95233.44;5015505;28;20037;-62
2021/12/19 11:48:29;;;;;;;20.73;12.50;;;;;;;2.09;62.73;95227.00;5031464;28;20071;-60
2021/12/19 11:50:56;;;;;;;20.75;13.27;;;;;;;2.05;62.79;95215.25;5033316;28;20113;-64
2021/12/19 11:53:26;;;;;;;19.45;12.65;;;;;;;2.09;62.54;95221.91;5037199;28;20040;-64
2021/12/19 11:56:10;;;;;;;18.10;11.98;;;;;;;1.91;62.39;95182.53;5036813;28;20103;-62
2021/12/19 11:58:48;;;;;;;20.40;13.82;;;;;;;2.12;62.67;95201.50;5050760;28;20078;-64
2021/12/19 12:01:27;;;;;;;17.92;11.95;;;;;;;2.09;62.53;95200.75;5032934;28;20045;-64
2021/12/19 12:04:14;;;;;;;17.05;9.45;;;;;;;2.11;62.76;95202.34;5050513;28;20100;-64
2021/12/19 12:07:01;;;;;;;20.85;13.05;;;;;;;2.07;62.72;95193.16;5050541;28;20033;-63
2021/12/19 12:09:31;;;;;;;19.88;13.07;;;;;;;2.07;63.03;95197.41;5042830;28;20045;-62
2021/12/19 12:12:00;;;;;;;19.70;13.20;;;;;;;2.08;62.44;95179.53;5027411;28;20495;-62
2021/12/19 12:14:36;;;;;;;22.38;13.85;;;;;;;1.91;63.71;95174.91;5028755;28;20357;-60
2021/12/19 12:17:07;;;;;;;19.17;11.05;;;;;;;1.79;62.90;95149.84;5040125;28;20480;-60
2021/12/19 12:19:57;;;;;;;20.77;11.40;;;;;;;1.92;63.15;95181.69;5006081;28;20046;-60
2021/12/19 12:22:25;;;;;;;16.15;9.02;;;;;;;1.86;63.04;95175.94;5024335;28;20500;-59
2021/12/19 12:25:06;;;;;;;18.30;11.73;;;;;;;1.85;63.10;95180.16;5026615;28;20033;-61
2021/12/19 12:27:41;;;;;;;20.27;12.35;;;;;;;1.89;63.35;95174.13;5009593;28;20025;-61
2021/12/19 12:30:10;;;;;;;21.50;12.52;;;;;;;1.89;63.80;95169.03;5016481;28;20048;-58
2021/12/19 12:32:36;;;;;;;23.00;13.32;;;;;;;1.93;63.92;95157.06;5027342;28;20033;-63
2021/12/19 12:35:03;;;;;;;16.88;11.05;;;;;;;1.73;63.75;95127.09;5026722;28;20523;-62
2021/12/19 12:37:29;;;;;;;19.38;11.70;;;;;;;1.87;63.91;95152.16;5027331;28;20040;-63
2021/12/19 12:40:31;;;;;;;19.70;12.30;;;;;;;1.87;63.96;95130.13;5027645;28;20041;-60